KAGC/AGC METAR and TAF weather

Enter ICAO airport designator
Station Type Date Time Source
KAGC METAR 2019/06/26 21:53 UTC NOAA

KAGC 262153Z 26009G18KT 10SM CLR 28/19 A3009 RMK AO2 SLP186 T02830189


Station Type Date Time Source
KAGC Decoded METAR 2019/06/26 21:53 UTC NOAA

PITTSBURGH ALLEGHENY CTY., PA, United States (KAGC) 40-21N 079-55W 389M
Jun 26, 2019 - 05:53 PM EDT / 2019.06.26 2153 UTC
Wind: from the W (260 degrees) at 10 MPH (9 KT) gusting to 21 MPH (18 KT):0
Visibility: 10 mile(s):0
Sky conditions: clear
Temperature: 82.9 F (28.3 C)
Dew Point: 66.0 F (18.9 C)
Relative Humidity: 56%
Pressure (altimeter): 30.09 in. Hg (1018 hPa)
ob: KAGC 262153Z 26009G18KT 10SM CLR 28/19 A3009 RMK AO2 SLP186 T02830189
cycle: 22

Station Type Date Time Source
KAGC TAF 2019/06/26 18:30 UTC NOAA

TAF KAGC 261727Z 2618/2718 22011G19KT P6SM BKN045
FM270100 24004KT P6SM SCT250
FM270900 VRB03KT 4SM BR SCT250
FM271500 24004KT P6SM SCT045

Example: see airport list